Time;durP1;ratioP1;P1;durP2;ratioP2;P2;SDS_P1;SDS_P2;PMS_P1;PMS_P2;Temp;Humidity;BMP_temperature;BMP_pressure;BME280_temperature;BME280_humidity;BME280_pressure;Samples;Min_cycle;Max_cycle;Signal;HPM_P1;HPM_P2
2023/01/13 00:01:07;;;;;;;3.78;1.38;;;;;;;18.61;49.78;100160.41;5025178;28;20045;-55
2023/01/13 00:03:33;;;;;;;5.43;2.05;;;;;;;18.61;49.98;100152.31;5025399;28;20168;-52
2023/01/13 00:05:59;;;;;;;5.90;1.75;;;;;;;18.61;49.45;100160.41;5025319;28;20524;-55
2023/01/13 00:08:24;;;;;;;5.30;2.38;;;;;;;18.60;49.67;100158.72;5007753;28;20053;-54
2023/01/13 00:10:49;;;;;;;4.53;2.13;;;;;;;18.60;49.60;100155.19;5025183;28;20025;-56
2023/01/13 00:13:15;;;;;;;5.18;1.45;;;;;;;18.59;49.52;100156.22;5025347;28;20080;-53
2023/01/13 00:15:40;;;;;;;6.63;1.75;;;;;;;18.59;49.60;100161.59;5025293;28;20042;-54
2023/01/13 00:18:05;;;;;;;3.10;1.55;;;;;;;18.56;49.56;100162.78;5024354;28;20576;-53
2023/01/13 00:20:30;;;;;;;7.75;2.00;;;;;;;18.57;49.48;100153.72;5009616;28;20085;-56
2023/01/13 00:22:57;;;;;;;6.60;2.00;;;;;;;18.57;49.56;100169.03;5011824;28;20030;-54
2023/01/13 00:25:22;;;;;;;6.00;1.60;;;;;;;18.56;49.60;100167.34;5025157;28;20032;-51
2023/01/13 00:27:48;;;;;;;7.65;2.53;;;;;;;18.55;49.37;100161.13;5019073;28;20038;-54
2023/01/13 00:30:13;;;;;;;7.25;1.90;;;;;;;18.54;49.55;100155.94;5005531;28;20030;-56
2023/01/13 00:32:38;;;;;;;4.50;1.95;;;;;;;18.51;49.44;100142.84;5021615;28;20607;-53
2023/01/13 00:35:04;;;;;;;5.32;2.03;;;;;;;18.51;49.65;100135.59;5024802;28;20101;-54
2023/01/13 00:37:30;;;;;;;6.20;1.90;;;;;;;18.52;49.56;100156.13;5024685;28;20626;-55
2023/01/13 00:39:56;;;;;;;3.92;1.48;;;;;;;18.51;49.35;100148.22;5024999;28;20026;-52
2023/01/13 00:45:05;;;;;;;7.68;1.90;;;;;;;18.51;49.24;100148.22;5025161;28;20029;-52
2023/01/13 00:47:31;;;;;;;7.78;2.53;;;;;;;18.49;49.21;100151.94;5024370;28;20037;-53
2023/01/13 00:49:56;;;;;;;6.22;2.08;;;;;;;18.48;49.23;100152.97;5024799;28;20101;-54
2023/01/13 00:52:21;;;;;;;7.00;2.53;;;;;;;18.47;49.16;100151.28;5024710;28;20034;-55
2023/01/13 00:54:46;;;;;;;5.50;2.08;;;;;;;18.48;49.30;100162.91;5024886;28;20453;-53
2023/01/13 00:57:14;;;;;;;10.90;2.58;;;;;;;18.47;49.25;100153.13;5015689;28;20026;-53
2023/01/13 00:59:39;;;;;;;5.72;1.75;;;;;;;18.46;49.15;100144.22;5005175;28;20058;-51
2023/01/13 01:02:04;;;;;;;7.18;2.55;;;;;;;18.43;49.22;100131.13;5004986;28;20041;-53
2023/01/13 01:04:30;;;;;;;6.57;2.42;;;;;;;18.43;48.99;100141.88;5004668;28;20093;-55
2023/01/13 01:06:55;;;;;;;4.45;1.67;;;;;;;18.43;48.82;100141.06;5004812;28;20049;-54
2023/01/13 01:09:20;;;;;;;8.32;2.50;;;;;;;18.42;49.36;100139.41;5005117;28;20023;-53
2023/01/13 01:11:45;;;;;;;5.18;2.00;;;;;;;18.42;49.24;100152.84;5005033;28;20030;-51
2023/01/13 01:14:12;;;;;;;6.60;2.53;;;;;;;18.42;49.16;100158.22;5005112;28;20150;-54
2023/01/13 01:16:38;;;;;;;5.78;1.92;;;;;;;18.35;48.92;100158.16;5010739;28;20026;-52
2023/01/13 01:19:04;;;;;;;5.63;2.45;;;;;;;18.37;49.12;100156.09;5024550;28;20034;-53
2023/01/13 01:21:30;;;;;;;10.95;2.30;;;;;;;18.39;48.80;100159.47;5024263;28;20121;-55
2023/01/13 01:23:58;;;;;;;8.35;2.63;;;;;;;18.39;48.75;100159.47;5024852;28;20030;-54
2023/01/13 01:26:25;;;;;;;8.02;2.47;;;;;;;18.38;49.01;100157.75;5024670;28;20021;-55
2023/01/13 01:28:51;;;;;;;6.25;2.28;;;;;;;18.37;48.88;100153.41;5024648;28;20037;-53
2023/01/13 01:31:25;;;;;;;7.65;2.38;;;;;;;18.37;49.12;100163.34;5018992;28;20034;-55
2023/01/13 01:33:51;;;;;;;6.75;2.50;;;;;;;18.36;48.92;100157.13;5013883;28;20025;-55
2023/01/13 01:36:18;;;;;;;8.77;2.67;;;;;;;18.35;48.95;100154.59;5010329;28;20033;-54
2023/01/13 01:38:44;;;;;;;9.35;2.83;;;;;;;18.34;49.14;100152.94;5027741;28;20042;-52
2023/01/13 01:41:22;;;;;;;6.32;2.22;;;;;;;18.35;48.95;100159.97;5028060;28;20025;-52
2023/01/13 01:43:59;;;;;;;8.90;2.60;;;;;;;18.33;48.73;100159.34;5028012;28;20018;-52
2023/01/13 01:46:29;;;;;;;6.45;2.38;;;;;;;18.31;48.68;100156.84;5027677;28;20093;-52
2023/01/13 01:48:59;;;;;;;7.43;2.92;;;;;;;18.32;48.66;100161.19;5027664;28;20025;-53
2023/01/13 01:51:26;;;;;;;6.45;2.33;;;;;;;18.26;49.02;100153.84;5027594;28;20064;-51
2023/01/13 01:53:52;;;;;;;5.10;1.90;;;;;;;18.31;48.70;100164.91;5010172;28;20072;-50
2023/01/13 01:56:18;;;;;;;9.15;3.42;;;;;;;18.29;48.92;100150.78;5008291;28;20033;-52
2023/01/13 01:58:46;;;;;;;7.78;2.67;;;;;;;18.29;48.91;100158.88;4990725;28;20027;-55
2023/01/13 02:01:12;;;;;;;6.43;2.22;;;;;;;18.24;48.76;100142.44;4990555;28;20030;-52
2023/01/13 02:03:41;;;;;;;8.07;2.60;;;;;;;18.28;48.71;100159.88;4990565;28;20026;-54
2023/01/13 02:06:07;;;;;;;7.53;3.03;;;;;;;18.28;48.86;100176.03;4990274;28;20076;-53
2023/01/13 02:08:32;;;;;;;9.45;2.92;;;;;;;18.27;48.55;100168.97;5007728;28;20069;-54
2023/01/13 02:10:57;;;;;;;8.48;2.60;;;;;;;18.26;48.83;100167.28;4990291;28;20022;-52
2023/01/13 02:13:23;;;;;;;5.97;2.17;;;;;;;18.26;48.79;100161.91;5007633;28;20054;-52
2023/01/13 02:16:01;;;;;;;7.55;2.80;;;;;;;18.24;48.81;100161.28;5008751;28;20022;-51
2023/01/13 02:18:26;;;;;;;8.85;3.55;;;;;;;18.23;48.75;100146.97;4992651;28;20518;-52
2023/01/13 02:21:00;;;;;;;7.57;2.47;;;;;;;18.23;48.58;100165.00;5026707;28;20026;-51
2023/01/13 02:26:37;;;;;;;8.45;2.63;;;;;;;18.22;48.66;100148.00;5007310;28;20700;-54
2023/01/13 02:32:19;;;;;;;9.43;3.33;;;;;;;18.20;48.72;100130.38;5007610;28;20351;-54
2023/01/13 02:34:52;;;;;;;7.63;2.60;;;;;;;18.20;48.63;100124.97;5013658;28;20033;-54
2023/01/13 02:37:29;;;;;;;7.07;2.35;;;;;;;18.17;48.69;100142.31;5009054;28;20072;-55
2023/01/13 02:39:58;;;;;;;10.32;4.32;;;;;;;18.15;48.60;100125.53;5026864;28;20237;-54
2023/01/13 02:45:25;;;;;;;7.72;2.75;;;;;;;18.16;48.55;100137.13;5025880;28;20064;-53
2023/01/13 02:47:54;;;;;;;10.15;3.20;;;;;;;18.15;48.66;100125.53;5009122;28;20788;-54
2023/01/13 02:50:24;;;;;;;10.60;2.85;;;;;;;18.15;48.36;100109.38;5026393;28;20026;-52
2023/01/13 02:52:53;;;;;;;8.32;2.40;;;;;;;18.15;48.33;100105.88;5008246;28;20038;-52
2023/01/13 02:55:27;;;;;;;7.82;2.55;;;;;;;18.13;48.55;100113.28;5008993;28;20040;-55
2023/01/13 02:57:53;;;;;;;7.90;2.80;;;;;;;18.14;48.38;100106.91;4994508;28;20049;-56
2023/01/13 03:00:19;;;;;;;8.45;2.97;;;;;;;18.11;48.38;100118.00;4989385;28;20531;-55
2023/01/13 03:02:47;;;;;;;8.10;2.45;;;;;;;18.11;48.40;100104.56;5005496;28;20096;-52
2023/01/13 03:05:14;;;;;;;7.55;2.65;;;;;;;18.13;48.16;100115.97;5026235;28;20029;-55
2023/01/13 03:07:52;;;;;;;7.60;2.40;;;;;;;18.11;48.37;100112.63;5025938;28;20022;-55
2023/01/13 03:10:55;;;;;;;7.93;3.42;;;;;;;18.10;48.33;100110.97;5009259;28;20026;-56
2023/01/13 03:13:32;;;;;;;8.52;2.97;;;;;;;18.09;48.47;100107.41;5026211;28;20034;-56
2023/01/13 03:16:09;;;;;;;7.93;3.03;;;;;;;18.10;48.46;100116.34;5026196;28;20030;-54
2023/01/13 03:18:34;;;;;;;11.50;3.30;;;;;;;18.07;48.56;100104.09;5024382;28;20169;-56
2023/01/13 03:20:59;;;;;;;6.68;2.55;;;;;;;18.07;48.49;100112.16;5025919;28;20489;-56
2023/01/13 03:23:47;;;;;;;10.45;3.08;;;;;;;18.07;48.45;100103.25;5022261;28;20113;-56
2023/01/13 03:26:17;;;;;;;6.88;2.63;;;;;;;18.04;48.55;100112.50;4960318;28;20069;-53
2023/01/13 03:28:48;;;;;;;7.97;2.67;;;;;;;18.05;48.45;100097.19;5020712;28;20092;-55
2023/01/13 03:31:17;;;;;;;8.18;3.83;;;;;;;18.05;48.29;100116.88;5025835;28;20089;-54
2023/01/13 03:33:47;;;;;;;8.23;3.17;;;;;;;17.98;48.47;100091.75;5007998;28;20029;-55
2023/01/13 03:36:14;;;;;;;11.75;3.33;;;;;;;18.04;48.18;100103.59;5008067;28;20052;-53
2023/01/13 03:38:47;;;;;;;8.07;3.42;;;;;;;18.02;48.41;100103.81;5008003;28;20060;-52
2023/01/13 03:41:18;;;;;;;8.88;2.95;;;;;;;18.02;48.39;100101.13;5008186;28;20735;-54
2023/01/13 03:46:49;;;;;;;10.35;3.70;;;;;;;18.00;48.52;100100.44;5010891;28;20104;-54
2023/01/13 03:49:18;;;;;;;7.38;3.10;;;;;;;18.01;48.18;100106.66;5025569;28;20022;-56
2023/01/13 03:51:46;;;;;;;;;;;;;;;17.99;48.26;100105.00;5007836;28;20029;-53
2023/01/13 03:54:13;;;;;;;6.75;2.95;;;;;;;17.99;48.38;100101.47;5008413;28;19909;-55
2023/01/13 03:56:42;;;;;;;6.13;2.90;;;;;;;17.98;48.37;100100.63;5007506;28;20053;-55
2023/01/13 03:59:10;;;;;;;8.52;3.83;;;;;;;17.97;48.32;100101.66;5025355;28;20034;-55
2023/01/13 04:02:00;;;;;;;8.18;2.78;;;;;;;17.96;48.19;100097.28;5007830;28;20026;-55
2023/01/13 04:04:32;;;;;;;8.98;3.38;;;;;;;17.94;48.25;100098.50;5025260;28;20053;-54
2023/01/13 04:07:36;;;;;;;5.82;2.50;;;;;;;17.96;48.40;100096.44;5007564;28;20021;-54
2023/01/13 04:10:05;;;;;;;8.00;3.05;;;;;;;17.96;48.32;100093.75;5014404;28;20034;-50
2023/01/13 04:15:21;;;;;;;7.57;3.08;;;;;;;17.94;48.10;100083.19;5010264;28;20033;-52
2023/01/13 04:17:46;;;;;;;7.50;2.63;;;;;;;17.94;48.03;100085.06;5007405;28;20518;-52
2023/01/13 04:20:12;;;;;;;7.07;3.30;;;;;;;17.94;48.20;100079.66;5024955;28;20028;-52
2023/01/13 04:22:37;;;;;;;8.93;2.97;;;;;;;17.93;48.43;100081.53;5024764;28;20030;-54
2023/01/13 04:25:03;;;;;;;9.32;3.00;;;;;;;17.89;48.20;100076.69;5025042;28;20048;-52
2023/01/13 04:27:28;;;;;;;10.70;3.08;;;;;;;17.92;48.13;100081.69;5025336;28;20029;-52
2023/01/13 04:29:54;;;;;;;7.82;2.80;;;;;;;17.91;48.06;100082.72;5025103;28;20061;-53
2023/01/13 04:32:19;;;;;;;8.98;3.40;;;;;;;17.92;48.23;100082.53;5024917;28;20030;-54
2023/01/13 04:34:44;;;;;;;8.88;3.15;;;;;;;17.92;48.24;100087.06;5024460;28;20053;-54
2023/01/13 04:37:10;;;;;;;10.38;2.80;;;;;;;17.93;48.22;100097.66;5024497;28;20037;-55
2023/01/13 04:39:35;;;;;;;8.40;3.25;;;;;;;17.91;48.00;100097.00;5024967;28;20033;-53
2023/01/13 04:42:01;;;;;;;10.27;3.47;;;;;;;17.90;48.30;100089.13;5024951;28;20408;-54
2023/01/13 04:44:27;;;;;;;8.32;2.95;;;;;;;17.93;48.08;100097.66;5025025;28;20056;-57
2023/01/13 04:46:52;;;;;;;9.45;2.78;;;;;;;17.93;48.21;100088.75;5025055;28;20075;-56
2023/01/13 04:49:18;;;;;;;9.48;3.22;;;;;;;17.88;48.06;100085.75;5024799;28;20478;-55
2023/01/13 04:51:43;;;;;;;7.25;2.90;;;;;;;17.94;48.22;100093.13;5015553;28;20068;-53
2023/01/13 04:54:10;;;;;;;11.50;2.90;;;;;;;17.93;48.09;100088.75;4987673;28;20026;-53
2023/01/13 04:56:35;;;;;;;10.35;3.25;;;;;;;17.92;48.04;100076.31;5014215;28;20081;-52
2023/01/13 04:59:00;;;;;;;7.50;2.90;;;;;;;17.93;48.07;100086.91;5005061;28;20030;-54
2023/01/13 05:01:26;;;;;;;11.07;3.15;;;;;;;17.85;47.99;100067.31;5017156;28;20057;-55
2023/01/13 05:03:51;;;;;;;8.98;3.03;;;;;;;17.92;47.93;100087.06;5024482;28;20030;-55
2023/01/13 05:06:16;;;;;;;9.93;3.13;;;;;;;17.92;47.85;100076.31;5024451;28;20028;-55
2023/01/13 05:08:41;;;;;;;9.25;3.45;;;;;;;17.92;47.95;100079.84;5027341;28;20025;-55
2023/01/13 05:16:59;;;;;;;7.88;2.47;;;;;;;17.93;47.95;100078.00;5028159;28;20049;-54
2023/01/13 05:19:20;;;;;;;10.43;3.35;;;;;;;17.93;47.98;100078.84;5028355;28;20072;-56
2023/01/13 05:27:30;;;;;;;6.57;2.40;;;;;;;17.94;47.87;100090.44;4948182;29;20091;-54
2023/01/13 05:29:56;;;;;;;7.93;2.40;;;;;;;17.95;48.12;100092.09;4947056;29;20036;-54
2023/01/13 05:32:22;;;;;;;7.78;2.67;;;;;;;17.89;47.93;100071.31;4947717;29;20062;-55
2023/01/13 05:34:48;;;;;;;6.13;2.70;;;;;;;17.97;48.21;100082.00;4956021;29;20027;-54
2023/01/13 05:37:13;;;;;;;7.70;2.65;;;;;;;17.97;48.23;100087.38;4945224;29;20055;-55
2023/01/13 05:43:18;;;;;;;6.00;2.72;;;;;;;17.97;48.33;100082.84;4944353;29;20047;-53
2023/01/13 05:45:29;;;;;;;7.47;2.60;;;;;;;17.99;48.07;100074.56;4938630;29;20209;-53
2023/01/13 05:47:55;;;;;;;7.97;3.28;;;;;;;18.00;48.31;100070.84;4937562;29;20076;-49
2023/01/13 05:50:20;;;;;;;11.52;3.30;;;;;;;18.00;48.01;100065.47;4923058;29;20044;-55
2023/01/13 05:52:45;;;;;;;10.98;3.13;;;;;;;18.01;48.29;100072.56;4938279;29;20122;-53
2023/01/13 05:55:11;;;;;;;9.88;3.78;;;;;;;18.03;48.03;100058.91;4937366;29;20032;-55
2023/01/13 05:57:36;;;;;;;7.15;2.95;;;;;;;18.03;48.15;100059.75;4937303;28;20107;-56
2023/01/13 06:00:03;;;;;;;8.15;2.80;;;;;;;18.05;48.27;100078.38;5026859;28;20034;-54
2023/01/13 06:02:28;;;;;;;8.00;3.33;;;;;;;18.06;48.44;100069.31;5026906;28;20374;-54
2023/01/13 06:04:53;;;;;;;6.72;2.58;;;;;;;18.06;48.00;100074.69;5025981;28;20426;-53
2023/01/13 06:07:19;;;;;;;5.55;2.30;;;;;;;18.05;47.98;100079.22;5024467;28;20034;-55
2023/01/13 06:09:44;;;;;;;6.22;2.22;;;;;;;18.07;48.16;100087.94;5026198;28;20094;-55
2023/01/13 06:12:10;;;;;;;8.52;2.58;;;;;;;18.06;48.24;100082.75;5026047;28;20060;-52
2023/01/13 06:14:38;;;;;;;7.53;2.55;;;;;;;18.05;48.10;100083.75;5008875;28;20036;-55
2023/01/13 06:17:06;;;;;;;6.85;2.47;;;;;;;18.07;48.13;100098.72;5026341;28;20463;-54
2023/01/13 06:19:32;;;;;;;6.25;2.88;;;;;;;18.08;48.00;100104.91;5025407;28;20021;-55
2023/01/13 06:21:57;;;;;;;5.82;2.08;;;;;;;18.08;48.35;100110.28;5026161;28;20050;-54
2023/01/13 06:24:22;;;;;;;8.30;2.70;;;;;;;18.10;48.17;100101.03;5026693;28;20026;-53
2023/01/13 06:26:47;;;;;;;7.18;2.45;;;;;;;18.09;47.91;100110.09;5026505;28;20359;-54
2023/01/13 06:29:15;;;;;;;5.53;2.20;;;;;;;18.10;47.90;100111.81;5026399;28;20064;-50
2023/01/13 06:31:41;;;;;;;8.80;2.53;;;;;;;18.11;47.91;100109.94;5023483;28;20053;-55
2023/01/13 06:34:11;;;;;;;6.75;2.30;;;;;;;18.12;47.85;100108.91;5025486;28;20699;-56
2023/01/13 06:36:43;;;;;;;6.30;2.15;;;;;;;18.07;48.01;100090.63;5006572;28;20026;-54
2023/01/13 06:39:10;;;;;;;7.22;3.30;;;;;;;18.12;48.07;100108.91;5006936;28;20056;-55
2023/01/13 06:44:20;;;;;;;5.80;2.58;;;;;;;18.12;47.99;100109.75;5026100;28;20060;-55
2023/01/13 06:46:45;;;;;;;7.32;2.33;;;;;;;18.13;47.91;100105.19;5026012;28;20030;-55
2023/01/13 06:49:11;;;;;;;8.25;2.92;;;;;;;18.13;47.91;100111.41;5026297;28;20022;-54
2023/01/13 06:51:36;;;;;;;6.20;2.05;;;;;;;18.14;47.72;100113.09;5025776;28;20500;-55
2023/01/13 06:54:01;;;;;;;7.90;3.72;;;;;;;18.14;48.08;100105.03;5025944;28;20033;-55
2023/01/13 06:56:26;;;;;;;3.28;1.67;;;;;;;18.14;48.02;100105.03;5025770;28;20065;-55
2023/01/13 06:58:52;;;;;;;5.75;2.20;;;;;;;18.14;47.68;100115.78;5025904;28;20029;-56
2023/01/13 07:01:17;;;;;;;5.45;1.98;;;;;;;18.14;47.68;100105.03;5025194;28;20022;-54
2023/01/13 07:03:42;;;;;;;4.90;2.03;;;;;;;18.15;47.78;100105.88;5025991;28;20054;-55
2023/01/13 07:06:07;;;;;;;5.47;1.90;;;;;;;18.15;47.64;100108.56;5026014;28;20026;-55
2023/01/13 07:08:33;;;;;;;5.25;2.15;;;;;;;18.15;47.75;100140.84;5025248;28;20041;-56
2023/01/13 07:11:01;;;;;;;4.10;2.25;;;;;;;18.15;47.79;100113.94;5026092;28;20054;-55
2023/01/13 07:16:10;;;;;;;7.22;2.47;;;;;;;18.13;47.43;100116.78;5008912;28;20056;-52
2023/01/13 07:18:35;;;;;;;5.45;2.20;;;;;;;18.14;47.31;100123.88;5024826;28;20030;-52
2023/01/13 07:21:12;;;;;;;5.15;2.28;;;;;;;18.14;47.34;100114.97;5025326;28;20030;-55
2023/01/13 07:23:39;;;;;;;6.13;2.55;;;;;;;18.14;47.36;100115.78;5025029;28;20041;-55
2023/01/13 07:26:05;;;;;;;6.28;2.33;;;;;;;18.18;47.21;100118.94;5008220;28;20057;-58
2023/01/13 07:28:30;;;;;;;8.55;2.10;;;;;;;18.20;47.63;100114.22;5012529;28;20935;-53
2023/01/13 07:30:56;;;;;;;7.88;1.85;;;;;;;18.15;47.83;100098.63;5010990;28;20019;-53
2023/01/13 07:33:22;;;;;;;7.63;2.17;;;;;;;18.23;47.82;100109.31;5020015;28;20026;-54
2023/01/13 07:35:53;;;;;;;4.90;1.80;;;;;;;18.27;47.77;100112.47;5024225;28;20022;-53
2023/01/13 07:38:19;;;;;;;7.53;2.17;;;;;;;18.28;47.54;100116.00;5012011;28;20046;-51
2023/01/13 07:40:44;;;;;;;6.75;2.55;;;;;;;18.30;47.77;100119.31;5015966;28;20068;-57
2023/01/13 07:46:00;;;;;;;6.63;2.40;;;;;;;18.26;47.57;100121.53;5010291;28;20087;-56
2023/01/13 07:48:26;;;;;;;6.05;1.95;;;;;;;18.27;47.57;100115.16;5025061;28;20049;-50
2023/01/13 07:50:52;;;;;;;6.47;2.00;;;;;;;18.35;47.52;100122.31;5012192;28;20053;-51
2023/01/13 07:53:18;;;;;;;7.72;2.42;;;;;;;18.37;47.51;100131.03;5020786;28;20198;-52
2023/01/13 07:55:44;;;;;;;5.43;2.17;;;;;;;18.38;47.45;100136.22;5009954;28;20054;-51
2023/01/13 07:58:09;;;;;;;6.60;1.77;;;;;;;18.41;47.42;100133.19;5024269;28;20032;-50
2023/01/13 08:00:36;;;;;;;8.10;2.63;;;;;;;18.43;47.46;100135.66;5016552;28;20034;-52
2023/01/13 08:03:01;;;;;;;4.40;1.88;;;;;;;18.44;47.35;100140.06;5019184;28;20036;-59
2023/01/13 08:05:26;;;;;;;5.22;2.25;;;;;;;18.44;46.87;100132.00;5010047;28;20054;-57
2023/01/13 08:07:51;;;;;;;6.35;1.95;;;;;;;18.45;47.07;100139.03;5002512;28;20106;-50
2023/01/13 08:10:17;;;;;;;6.70;2.65;;;;;;;18.42;47.04;100132.16;5006187;28;20026;-52
2023/01/13 08:15:28;;;;;;;5.47;2.00;;;;;;;18.51;46.77;100142.84;5024748;28;20060;-53
2023/01/13 08:17:53;;;;;;;4.57;1.95;;;;;;;18.51;46.77;100154.44;5025329;28;20036;-55
2023/01/13 08:20:19;;;;;;;4.90;2.28;;;;;;;18.50;46.84;100147.38;5024901;28;20057;-53
2023/01/13 08:22:44;;;;;;;7.93;3.05;;;;;;;18.49;46.79;100162.69;5018344;28;20066;-52
2023/01/13 08:25:09;;;;;;;5.40;2.00;;;;;;;18.53;46.30;100165.88;5024167;28;20025;-52
2023/01/13 08:27:34;;;;;;;6.45;2.40;;;;;;;18.53;46.42;100167.72;5006756;28;20037;-53
2023/01/13 08:30:00;;;;;;;7.00;2.17;;;;;;;18.52;46.69;100172.28;5018053;28;20034;-54
2023/01/13 08:32:25;;;;;;;6.05;2.28;;;;;;;18.45;46.38;100177.56;5005401;28;20026;-50
2023/01/13 08:34:50;;;;;;;6.30;2.10;;;;;;;18.50;46.40;100171.63;5019119;28;20084;-52
2023/01/13 08:37:15;;;;;;;6.38;2.15;;;;;;;18.52;46.57;100169.59;5024542;28;20136;-53
2023/01/13 08:39:41;;;;;;;4.82;1.70;;;;;;;18.52;46.36;100176.81;5023458;28;20049;-53
2023/01/13 08:42:06;;;;;;;4.30;1.83;;;;;;;18.55;46.41;100166.50;5018647;28;20045;-54
2023/01/13 08:44:31;;;;;;;7.95;2.45;;;;;;;18.54;46.73;100174.78;5018066;28;20034;-52
2023/01/13 08:46:57;;;;;;;5.85;1.85;;;;;;;18.56;46.63;100175.41;5022502;28;20030;-56
2023/01/13 08:49:23;;;;;;;6.63;2.17;;;;;;;18.56;46.78;100176.25;5012989;28;20038;-55
2023/01/13 08:51:49;;;;;;;4.22;1.63;;;;;;;18.55;46.73;100182.66;5009429;28;20026;-57
2023/01/13 08:54:16;;;;;;;5.03;1.85;;;;;;;18.58;46.85;100187.69;5024228;28;20042;-54
2023/01/13 08:56:42;;;;;;;7.32;2.42;;;;;;;18.59;46.47;100196.59;5022469;28;20021;-57
2023/01/13 08:59:18;;;;;;;6.85;2.15;;;;;;;18.58;46.72;100198.44;5018804;28;20030;-54
2023/01/13 09:01:44;;;;;;;7.68;2.20;;;;;;;18.59;46.56;100202.81;5024272;28;20030;-54
2023/01/13 09:04:20;;;;;;;6.43;2.38;;;;;;;18.59;46.47;100208.19;5015392;28;20025;-56
2023/01/13 09:06:46;;;;;;;6.68;2.28;;;;;;;18.62;46.38;100215.09;5020029;28;20034;-53
2023/01/13 09:09:12;;;;;;;5.70;2.38;;;;;;;18.62;46.39;100210.53;5019809;28;20094;-57
2023/01/13 09:14:26;;;;;;;6.95;2.40;;;;;;;18.61;46.43;100218.81;5013653;28;20106;-58
2023/01/13 09:16:51;;;;;;;7.20;2.22;;;;;;;18.61;46.53;100227.72;5019459;28;20027;-57
2023/01/13 09:19:17;;;;;;;6.28;2.35;;;;;;;18.61;46.65;100233.09;5020519;28;20037;-55
2023/01/13 09:21:42;;;;;;;7.05;2.15;;;;;;;18.61;46.63;100229.56;5011963;28;20038;-52
2023/01/13 09:24:07;;;;;;;7.50;2.67;;;;;;;18.61;46.44;100230.41;5009231;28;20045;-55
2023/01/13 09:26:32;;;;;;;5.55;2.40;;;;;;;18.61;46.43;100232.25;5021076;28;20038;-53
2023/01/13 09:28:58;;;;;;;6.03;2.78;;;;;;;18.64;46.44;100245.34;5017594;28;20044;-53
2023/01/13 09:31:23;;;;;;;4.93;1.75;;;;;;;18.65;46.50;100250.56;5026121;28;20343;-51
2023/01/13 09:36:32;;;;;;;7.78;2.60;;;;;;;18.66;45.96;100240.63;5013408;28;20501;-56
2023/01/13 09:38:58;;;;;;;5.63;2.13;;;;;;;18.66;46.31;100240.63;5017338;28;20050;-50
2023/01/13 09:44:14;;;;;;;7.53;2.85;;;;;;;18.68;46.54;100247.47;4996425;28;20084;-54
2023/01/13 09:46:42;;;;;;;8.32;2.65;;;;;;;18.69;46.23;100248.31;5019059;28;20026;-56
2023/01/13 09:49:33;;;;;;;4.05;1.90;;;;;;;18.73;46.37;100249.66;5001385;28;20381;-57
2023/01/13 09:52:06;;;;;;;6.35;2.17;;;;;;;18.72;46.02;100247.97;5007847;28;20093;-54
2023/01/13 09:54:48;;;;;;;5.78;2.40;;;;;;;18.74;46.19;100254.03;5013567;28;20146;-52
2023/01/13 09:57:15;;;;;;;6.32;2.28;;;;;;;18.78;45.90;100257.22;5026595;28;20022;-59
2023/01/13 09:59:40;;;;;;;9.02;2.40;;;;;;;18.79;45.90;100251.63;5016862;28;20034;-54
2023/01/13 10:02:31;;;;;;;5.55;2.13;;;;;;;18.79;46.04;100253.50;5008840;28;20022;-53
2023/01/13 10:05:15;;;;;;;4.90;2.00;;;;;;;18.80;46.02;100256.00;5009544;28;20029;-57
2023/01/13 10:07:51;;;;;;;6.18;2.67;;;;;;;18.85;45.79;100252.75;5007453;28;20034;-55
2023/01/13 10:10:38;;;;;;;6.57;3.10;;;;;;;18.88;45.89;100265.84;5011784;28;20037;-51
2023/01/13 10:13:19;;;;;;;9.93;2.47;;;;;;;18.88;45.72;100260.47;5016736;28;20038;-56
2023/01/13 10:15:53;;;;;;;6.07;2.22;;;;;;;18.82;46.06;100245.00;5023024;28;20378;-51
2023/01/13 10:18:42;;;;;;;6.18;2.10;;;;;;;18.82;45.95;100251.28;5004395;28;20076;-57
2023/01/13 10:21:34;;;;;;;7.72;2.40;;;;;;;18.88;45.76;100253.22;5017299;28;20049;-56
2023/01/13 10:24:06;;;;;;;5.93;2.10;;;;;;;18.88;45.83;100269.38;5010112;28;20030;-58
2023/01/13 10:26:47;;;;;;;6.78;2.53;;;;;;;18.90;45.90;100269.19;5003097;28;20054;-56
2023/01/13 10:29:23;;;;;;;6.30;2.30;;;;;;;18.91;45.97;100268.19;5001067;28;20060;-56
2023/01/13 10:31:49;;;;;;;5.82;2.30;;;;;;;18.90;45.59;100278.13;5010301;28;20019;-56
2023/01/13 10:34:15;;;;;;;7.15;2.35;;;;;;;18.90;46.17;100285.34;5020515;28;20029;-55
2023/01/13 10:36:55;;;;;;;5.78;2.15;;;;;;;18.89;46.03;100281.81;5019149;28;20026;-57
2023/01/13 10:39:21;;;;;;;6.32;2.15;;;;;;;18.88;45.58;100277.44;5019446;28;20089;-57
2023/01/13 10:41:46;;;;;;;8.02;2.40;;;;;;;18.89;45.82;100281.81;5010221;28;20026;-56
2023/01/13 10:44:16;;;;;;;5.97;2.25;;;;;;;18.91;45.70;100292.44;5023866;28;20034;-54
2023/01/13 10:46:53;;;;;;;6.78;2.42;;;;;;;18.92;45.70;100304.88;5013904;28;20022;-53
2023/01/13 10:49:27;;;;;;;6.22;2.05;;;;;;;18.92;45.74;100296.78;5014042;28;20030;-52
2023/01/13 10:51:52;;;;;;;5.18;1.88;;;;;;;18.92;45.49;100300.31;5022394;28;20028;-48
2023/01/13 10:54:22;;;;;;;5.25;1.80;;;;;;;18.91;45.88;100298.66;5010064;28;20022;-52
2023/01/13 10:56:48;;;;;;;5.25;2.25;;;;;;;18.92;45.61;100299.47;5022102;28;20028;-52
2023/01/13 10:59:22;;;;;;;7.22;2.67;;;;;;;18.93;45.80;100310.06;5007601;28;20038;-54
2023/01/13 11:02:23;;;;;;;6.80;2.58;;;;;;;18.91;45.69;100312.13;5025767;28;20065;-57
2023/01/13 11:04:54;;;;;;;9.85;2.40;;;;;;;18.90;45.80;100307.75;5017386;28;20026;-55
2023/01/13 11:07:34;;;;;;;7.22;3.17;;;;;;;18.76;45.69;100275.38;5025623;28;20360;-54
2023/01/13 11:10:14;;;;;;;4.47;2.28;;;;;;;18.90;45.84;100317.66;5008249;28;20014;-53
2023/01/13 11:12:51;;;;;;;6.13;2.25;;;;;;;18.92;45.69;100321.88;5025099;28;20041;-51
2023/01/13 11:15:21;;;;;;;5.38;2.47;;;;;;;18.93;45.71;100320.84;5008479;28;20041;-47
2023/01/13 11:17:59;;;;;;;6.78;2.25;;;;;;;18.93;45.98;100315.44;5008326;28;20112;-50
2023/01/13 11:20:31;;;;;;;6.40;2.35;;;;;;;18.92;46.04;100332.63;5008962;28;20028;-48
2023/01/13 11:22:58;;;;;;;7.07;2.67;;;;;;;18.87;45.71;100326.13;5008147;28;20106;-52
2023/01/13 11:25:45;;;;;;;5.72;2.30;;;;;;;18.92;45.64;100326.41;5025298;28;20033;-52
2023/01/13 11:28:19;;;;;;;6.03;3.08;;;;;;;18.91;45.67;100332.84;5007161;28;20056;-50
2023/01/13 11:31:04;;;;;;;6.97;2.40;;;;;;;18.90;45.89;100334.69;5024657;28;20025;-52
2023/01/13 11:33:29;;;;;;;5.85;2.10;;;;;;;18.90;45.72;100336.53;4988492;28;20022;-54
2023/01/13 11:36:03;;;;;;;9.60;2.55;;;;;;;18.88;45.72;100336.72;5014413;28;20132;-56
2023/01/13 11:38:51;;;;;;;5.90;2.50;;;;;;;18.87;45.92;100329.66;4990420;28;20145;-51
2023/01/13 11:41:41;;;;;;;5.00;2.30;;;;;;;18.86;45.60;100344.16;5007488;28;20022;-51
2023/01/13 11:44:16;;;;;;;5.43;2.40;;;;;;;18.85;45.87;100333.53;5006894;28;20090;-54
2023/01/13 11:46:41;;;;;;;5.90;2.13;;;;;;;18.86;45.85;100349.53;5023372;28;20022;-54
2023/01/13 11:49:13;;;;;;;5.65;2.38;;;;;;;18.86;45.89;100336.06;5025189;28;20033;-54
2023/01/13 11:51:51;;;;;;;5.47;2.10;;;;;;;18.87;45.76;100345.81;5007208;28;20018;-53
2023/01/13 11:54:39;;;;;;;5.73;2.13;;;;;;;18.89;45.85;100353.72;5005045;28;20024;-54
2023/01/13 11:57:26;;;;;;;7.60;2.40;;;;;;;18.88;46.08;100352.88;5014184;28;20628;-54
2023/01/13 12:00:07;;;;;;;8.40;2.40;;;;;;;18.88;45.85;100358.25;5007319;28;20486;-55
2023/01/13 12:03:09;;;;;;;5.38;2.38;;;;;;;18.89;45.92;100359.09;5025037;28;20025;-53
2023/01/13 12:05:38;;;;;;;7.25;2.28;;;;;;;18.89;45.89;100372.56;5023338;28;20025;-54
2023/01/13 12:08:17;;;;;;;8.38;2.67;;;;;;;18.84;45.88;100359.63;5024039;28;20045;-52
2023/01/13 12:10:58;;;;;;;6.63;2.85;;;;;;;18.88;45.98;100366.34;5007392;28;20129;-54
2023/01/13 12:13:45;;;;;;;6.10;2.50;;;;;;;18.86;46.13;100365.69;5007455;28;20021;-55
2023/01/13 12:16:26;;;;;;;5.93;2.60;;;;;;;18.85;45.85;100373.94;5022516;28;20526;-54
2023/01/13 12:19:18;;;;;;;6.63;2.42;;;;;;;18.87;45.98;100369.22;5022713;28;20025;-51
2023/01/13 12:22:19;;;;;;;7.03;2.50;;;;;;;18.85;46.23;100379.34;5024506;28;20029;-53
2023/01/13 12:25:03;;;;;;;6.22;2.08;;;;;;;18.84;46.33;100381.19;4996877;28;20542;-52
2023/01/13 12:27:45;;;;;;;8.00;2.30;;;;;;;18.83;46.31;100379.53;5022291;28;20120;-51